createdAt,value
2022-12-05T00:01:31.277Z,78.90
2022-12-05T00:04:00.588Z,94.90
2022-12-05T00:06:29.584Z,86.20
2022-12-05T00:08:57.467Z,77.35
2022-12-05T00:11:30.249Z,79.68
2022-12-05T00:13:59.116Z,90.53
2022-12-05T00:16:28.522Z,85.63
2022-12-05T00:18:55.715Z,85.93
2022-12-05T00:21:25.954Z,81.25
2022-12-05T00:23:54.274Z,68.72
2022-12-05T00:26:21.649Z,71.28
2022-12-05T00:28:49.630Z,68.70
2022-12-05T00:31:19.670Z,68.35
2022-12-05T00:33:46.892Z,65.45
2022-12-05T00:36:23.438Z,64.82
2022-12-05T00:38:50.846Z,67.30
2022-12-05T00:41:20.616Z,60.08
2022-12-05T00:43:47.574Z,64.93
2022-12-05T00:46:17.281Z,60.17
2022-12-05T00:48:44.826Z,62.45
2022-12-05T00:51:21.275Z,62.25
2022-12-05T00:53:48.529Z,57.00
2022-12-05T00:56:18.782Z,64.68
2022-12-05T00:58:46.518Z,60.42
2022-12-05T01:01:19.497Z,59.78
2022-12-05T01:03:47.142Z,56.67
2022-12-05T01:06:15.794Z,60.67
2022-12-05T01:08:43.148Z,59.00
2022-12-05T01:11:11.732Z,60.60
2022-12-05T01:13:38.587Z,55.00
2022-12-05T01:16:06.083Z,52.78
2022-12-05T01:18:33.269Z,51.45
2022-12-05T01:21:00.095Z,53.42
2022-12-05T01:23:26.842Z,58.63
2022-12-05T01:25:53.990Z,57.60
2022-12-05T01:28:21.078Z,50.63
2022-12-05T01:30:49.458Z,61.50
2022-12-05T01:33:17.540Z,53.45
2022-12-05T01:35:45.063Z,52.28
2022-12-05T01:38:13.386Z,55.15
2022-12-05T01:40:40.784Z,56.67
2022-12-05T01:43:18.025Z,51.70
2022-12-05T01:45:46.766Z,56.50
2022-12-05T01:48:31.649Z,56.72
2022-12-05T01:51:00.097Z,62.08
2022-12-05T01:53:28.306Z,58.72
2022-12-05T01:55:56.447Z,60.45
2022-12-05T01:58:28.330Z,58.85
2022-12-05T02:00:55.092Z,62.25
2022-12-05T02:03:22.316Z,61.60
2022-12-05T02:05:52.575Z,56.47
2022-12-05T02:08:19.980Z,56.95
2022-12-05T02:10:55.544Z,52.10
2022-12-05T02:13:46.448Z,59.53
2022-12-05T02:16:32.228Z,62.15
2022-12-05T02:19:37.667Z,59.45
2022-12-05T02:22:41.955Z,64.18
2022-12-05T02:25:32.817Z,71.47
2022-12-05T02:28:23.705Z,68.70
2022-12-05T02:30:58.711Z,62.95
2022-12-05T02:33:37.378Z,101.40
2022-12-05T02:36:17.269Z,115.50
2022-12-05T02:39:06.776Z,334.65
2022-12-05T02:41:41.193Z,159.25
2022-12-05T02:44:15.062Z,219.70
2022-12-05T02:46:44.693Z,261.92
2022-12-05T02:49:15.770Z,79.90
2022-12-05T02:51:47.001Z,169.10
2022-12-05T02:54:24.525Z,146.48
2022-12-05T02:56:53.057Z,127.32
2022-12-05T02:59:23.301Z,140.88
2022-12-05T03:01:51.001Z,121.25
2022-12-05T03:04:21.027Z,382.70
2022-12-05T03:07:10.200Z,204.07
2022-12-05T03:09:39.734Z,389.83
2022-12-05T03:12:17.690Z,156.35
2022-12-05T03:14:55.383Z,330.38
2022-12-05T03:17:26.042Z,597.03
2022-12-05T03:20:29.334Z,305.55
2022-12-05T03:23:43.458Z,120.78
2022-12-05T03:26:34.332Z,89.20
2022-12-05T03:29:40.946Z,85.65
2022-12-05T03:32:23.678Z,78.05
2022-12-05T03:35:03.147Z,91.00
2022-12-05T03:37:41.994Z,83.00
2022-12-05T03:40:38.787Z,91.50
2022-12-05T03:43:24.178Z,79.07
2022-12-05T03:45:56.921Z,64.53
2022-12-05T03:48:31.440Z,103.95
2022-12-05T03:51:00.418Z,74.50
2022-12-05T03:53:32.254Z,71.30
2022-12-05T03:59:21.441Z,72.28
2022-12-05T04:01:50.498Z,187.38
2022-12-05T04:04:40.925Z,160.80
2022-12-05T04:07:10.111Z,319.42
2022-12-05T04:09:49.538Z,274.40
2022-12-05T04:12:23.615Z,280.27
2022-12-05T04:14:55.006Z,141.73
2022-12-05T04:17:32.611Z,148.27
2022-12-05T04:20:20.509Z,95.13
2022-12-05T04:22:47.641Z,95.05
2022-12-05T04:25:35.589Z,282.88
2022-12-05T04:28:30.148Z,367.05
2022-12-05T04:31:03.723Z,263.33
2022-12-05T04:33:50.453Z,209.63
2022-12-05T04:36:26.134Z,134.77
2022-12-05T04:39:16.085Z,548.38
2022-12-05T04:41:50.327Z,402.58
2022-12-05T04:48:03.214Z,71.13
2022-12-05T04:50:33.494Z,144.77
2022-12-05T04:53:03.072Z,105.18
2022-12-05T04:55:32.495Z,65.18
2022-12-05T04:58:07.870Z,113.38
2022-12-05T05:00:44.018Z,105.78
2022-12-05T05:03:22.007Z,101.35
2022-12-05T05:05:52.475Z,62.65
2022-12-05T05:12:13.188Z,61.00
2022-12-05T05:14:42.617Z,117.57
2022-12-05T05:17:40.393Z,65.03
2022-12-05T05:20:27.040Z,64.35
2022-12-05T05:22:55.653Z,64.38
2022-12-05T05:37:05.461Z,64.25
2022-12-05T05:43:13.492Z,57.67
2022-12-05T05:45:40.221Z,62.47
2022-12-05T05:48:06.973Z,65.70
2022-12-05T05:50:33.748Z,68.15
2022-12-05T05:53:00.489Z,62.03
2022-12-05T05:55:27.310Z,65.68
2022-12-05T05:57:54.052Z,57.70
2022-12-05T06:00:25.315Z,55.08
2022-12-05T06:03:27.780Z,59.80
2022-12-05T06:05:59.662Z,54.80
2022-12-05T06:10:55.820Z,53.90
2022-12-05T06:13:22.608Z,59.20
2022-12-05T06:15:49.557Z,50.28
2022-12-05T06:18:16.289Z,49.95
2022-12-05T06:20:51.036Z,50.90
2022-12-05T06:23:17.758Z,51.72
2022-12-05T06:25:52.492Z,57.60
2022-12-05T06:28:20.415Z,52.78
2022-12-05T06:30:47.320Z,50.72
2022-12-05T06:33:14.680Z,55.05
2022-12-05T06:35:41.742Z,61.25
2022-12-05T06:38:08.825Z,57.80
2022-12-05T06:40:39.285Z,54.13
2022-12-05T06:43:06.068Z,53.85
2022-12-05T06:45:32.860Z,59.65
2022-12-05T06:47:59.663Z,53.75
2022-12-05T06:50:26.569Z,80.45
2022-12-05T06:52:53.311Z,63.88
2022-12-05T06:55:20.050Z,69.15
2022-12-05T06:57:46.798Z,69.15
2022-12-05T07:00:32.689Z,60.28
2022-12-05T07:02:59.538Z,55.90
2022-12-05T07:05:26.335Z,58.72
2022-12-05T07:07:53.307Z,75.97
2022-12-05T07:10:20.214Z,66.68
2022-12-05T07:12:47.138Z,63.90
2022-12-05T07:15:13.976Z,63.22
2022-12-05T07:17:40.845Z,72.15
2022-12-05T07:20:10.418Z,64.15
2022-12-05T07:22:37.499Z,83.43
2022-12-05T07:25:05.048Z,91.32
2022-12-05T07:27:31.866Z,81.22
2022-12-05T07:29:58.880Z,57.50
2022-12-05T07:32:26.035Z,82.68
2022-12-05T07:34:55.505Z,72.38
2022-12-05T07:37:22.801Z,63.47
2022-12-05T07:39:50.807Z,68.93
2022-12-05T07:42:17.537Z,63.80
2022-12-05T07:44:44.293Z,94.57
2022-12-05T07:47:11.091Z,64.63
2022-12-05T07:49:37.927Z,59.67
2022-12-05T07:52:04.782Z,85.38
2022-12-05T07:58:22.681Z,97.45
2022-12-05T08:04:30.204Z,126.50
2022-12-05T08:06:56.936Z,84.28
2022-12-05T08:09:23.766Z,74.18
2022-12-05T08:11:52.765Z,96.25
2022-12-05T08:14:20.424Z,89.78
2022-12-05T08:20:38.780Z,82.03
2022-12-05T08:31:10.048Z,83.95
2022-12-05T08:41:29.002Z,127.50
2022-12-05T08:47:47.775Z,88.97
2022-12-05T08:54:05.482Z,86.65
2022-12-05T08:57:25.031Z,85.97
2022-12-05T09:03:47.264Z,79.35
2022-12-05T09:10:17.043Z,82.55
2022-12-05T09:16:41.217Z,78.03
2022-12-05T09:22:57.773Z,109.47
2022-12-05T09:29:37.486Z,89.05
2022-12-05T09:32:04.488Z,84.68
2022-12-05T09:34:31.376Z,103.32
2022-12-05T09:37:16.375Z,150.10
2022-12-05T09:39:45.442Z,126.60
2022-12-05T09:42:53.477Z,130.90
2022-12-05T09:45:26.327Z,99.57
2022-12-05T09:50:52.985Z,87.72
2022-12-05T09:54:15.078Z,86.70
2022-12-05T10:00:30.602Z,83.32
2022-12-05T10:03:00.165Z,101.50
2022-12-05T10:05:49.469Z,86.07
2022-12-05T10:08:25.800Z,85.45
2022-12-05T10:11:02.105Z,72.10
2022-12-05T10:13:54.308Z,73.43
2022-12-05T10:16:49.457Z,78.00
2022-12-05T10:19:23.902Z,71.80
2022-12-05T10:21:58.874Z,82.43
2022-12-05T10:24:38.760Z,74.95
2022-12-05T10:27:14.530Z,73.65
2022-12-05T10:30:07.921Z,80.45
2022-12-05T10:33:07.956Z,73.43
2022-12-05T10:35:38.742Z,71.05
2022-12-05T10:38:05.577Z,70.88
2022-12-05T10:40:41.854Z,71.22
2022-12-05T10:43:13.274Z,69.60
2022-12-05T10:45:43.911Z,66.05
2022-12-05T10:52:17.777Z,65.30
2022-12-05T10:55:00.871Z,68.22
2022-12-05T10:57:32.793Z,74.50
2022-12-05T11:02:38.178Z,68.00
2022-12-05T11:05:05.703Z,70.05
2022-12-05T11:07:36.317Z,60.63
2022-12-05T11:13:56.426Z,57.85
2022-12-05T11:16:35.072Z,59.35
2022-12-05T11:19:57.997Z,49.50
2022-12-05T11:22:32.949Z,51.80
2022-12-05T11:24:59.959Z,54.28
2022-12-05T11:27:32.581Z,58.50
2022-12-05T11:30:28.135Z,53.53
2022-12-05T11:33:19.134Z,46.28
2022-12-05T11:43:38.970Z,45.03
2022-12-05T11:46:29.987Z,47.35
2022-12-05T11:49:28.214Z,44.33
2022-12-05T11:52:25.207Z,41.35
2022-12-05T11:55:15.165Z,43.70
2022-12-05T12:32:26.026Z,43.65
2022-12-05T12:41:43.377Z,42.25
2022-12-05T12:44:21.799Z,47.97
2022-12-05T12:46:57.565Z,48.58
2022-12-05T12:50:01.303Z,47.97
2022-12-05T12:52:41.124Z,45.85
2022-12-05T12:55:27.628Z,50.60
2022-12-05T12:57:54.347Z,48.10
2022-12-05T13:00:33.050Z,46.60
2022-12-05T13:03:20.341Z,48.22
2022-12-05T13:05:51.808Z,51.85
2022-12-05T13:08:34.051Z,49.80
2022-12-05T13:11:02.684Z,50.30
2022-12-05T13:13:36.755Z,50.88
2022-12-05T13:16:07.889Z,49.15
2022-12-05T13:18:35.628Z,51.03
2022-12-05T13:21:07.309Z,47.47
2022-12-05T13:23:54.274Z,54.35
2022-12-05T13:26:21.756Z,46.22
2022-12-05T13:28:53.934Z,49.65
2022-12-05T13:31:35.527Z,44.38
2022-12-05T13:34:02.450Z,44.75
2022-12-05T13:36:56.766Z,54.33
2022-12-05T13:39:42.607Z,46.65
2022-12-05T13:42:29.207Z,55.65
2022-12-05T13:45:04.914Z,55.58
2022-12-05T13:47:37.111Z,48.40
2022-12-05T13:50:07.295Z,61.55
2022-12-05T13:52:45.385Z,63.10
2022-12-05T13:55:36.538Z,60.38
2022-12-05T13:58:22.254Z,76.10
2022-12-05T14:00:52.687Z,64.88
2022-12-05T14:03:34.532Z,67.03
2022-12-05T14:06:01.695Z,69.15
2022-12-05T14:08:35.799Z,65.75
2022-12-05T14:11:05.819Z,63.22
2022-12-05T14:13:33.705Z,63.95
2022-12-05T14:16:25.521Z,75.93
2022-12-05T14:19:21.401Z,61.28
2022-12-05T14:22:18.758Z,143.65
2022-12-05T14:25:27.179Z,71.85
2022-12-05T14:28:18.308Z,59.38
2022-12-05T14:31:09.551Z,103.30
2022-12-05T14:33:36.495Z,150.53
2022-12-05T14:36:08.967Z,66.40
2022-12-05T14:38:37.982Z,168.38
2022-12-05T14:41:28.699Z,93.20
2022-12-05T14:43:56.938Z,81.97
2022-12-05T14:46:29.834Z,95.35
2022-12-05T14:48:56.991Z,188.07
2022-12-05T14:51:32.852Z,69.38
2022-12-05T14:54:32.243Z,150.52
2022-12-05T14:57:13.313Z,158.05
2022-12-05T15:00:06.573Z,132.37
2022-12-05T15:02:42.458Z,136.88
2022-12-05T15:05:26.450Z,90.82
2022-12-05T15:07:55.001Z,103.47
2022-12-05T15:10:39.370Z,75.20
2022-12-05T15:13:28.476Z,73.57
2022-12-05T15:43:47.659Z,76.30
2022-12-05T15:50:36.318Z,76.13
2022-12-05T15:57:00.071Z,68.88
2022-12-05T15:59:36.020Z,163.52
2022-12-05T16:02:29.031Z,127.22
2022-12-05T16:05:00.011Z,159.55
2022-12-05T16:07:30.498Z,212.88
2022-12-05T16:10:00.527Z,187.98
2022-12-05T16:12:32.771Z,125.65
2022-12-05T16:15:04.854Z,89.15
2022-12-05T16:17:52.227Z,131.73
2022-12-05T16:20:19.048Z,95.90
2022-12-05T16:22:49.147Z,124.82
2022-12-05T16:25:37.420Z,93.88
2022-12-05T16:28:11.244Z,91.80
2022-12-05T16:30:38.610Z,116.28
2022-12-05T16:33:16.164Z,125.78
2022-12-05T16:35:48.938Z,157.48
2022-12-05T16:38:26.051Z,102.05
2022-12-05T16:40:56.995Z,112.53
2022-12-05T16:43:33.078Z,98.95
2022-12-05T16:46:13.005Z,110.68
2022-12-05T16:48:44.738Z,103.53
2022-12-05T16:51:11.700Z,112.32
2022-12-05T16:53:39.777Z,104.70
2022-12-05T16:56:11.079Z,92.55
2022-12-05T16:58:37.814Z,156.07
2022-12-05T17:01:07.041Z,126.53
2022-12-05T17:03:35.673Z,117.85
2022-12-05T17:06:03.109Z,159.90
2022-12-05T17:08:30.045Z,137.98
2022-12-05T17:10:58.029Z,103.93
2022-12-05T17:13:25.353Z,160.30
2022-12-05T17:15:52.158Z,100.10
2022-12-05T17:18:26.612Z,96.57
2022-12-05T17:20:57.508Z,77.85
2022-12-05T17:23:24.282Z,79.88
2022-12-05T17:25:54.324Z,76.38
2022-12-05T17:28:23.314Z,95.97
2022-12-05T17:30:50.822Z,81.18
2022-12-05T17:33:19.293Z,90.22
2022-12-05T17:35:47.021Z,105.82
2022-12-05T17:38:14.420Z,111.13
2022-12-05T17:40:41.566Z,107.78
2022-12-05T17:43:12.799Z,96.18
2022-12-05T17:45:39.650Z,96.22
2022-12-05T17:48:06.589Z,97.55
2022-12-05T17:50:33.579Z,107.90
2022-12-05T17:53:05.776Z,111.60
2022-12-05T17:55:34.047Z,102.63
2022-12-05T17:58:00.821Z,113.43
2022-12-05T18:00:27.575Z,110.57
2022-12-05T18:02:54.392Z,122.10
2022-12-05T18:05:21.717Z,101.95
2022-12-05T18:07:48.713Z,87.72
2022-12-05T18:10:22.091Z,82.35
2022-12-05T18:12:50.053Z,82.15
2022-12-05T18:15:17.733Z,94.07
2022-12-05T18:17:44.881Z,86.53
2022-12-05T18:20:16.310Z,82.82
2022-12-05T18:22:43.304Z,82.05
2022-12-05T18:25:18.364Z,79.47
2022-12-05T18:27:45.665Z,92.00
2022-12-05T18:30:12.791Z,90.35
2022-12-05T18:32:39.626Z,145.10
2022-12-05T18:35:12.697Z,91.60
2022-12-05T18:37:40.214Z,96.75
2022-12-05T18:40:08.905Z,74.97
2022-12-05T18:42:36.221Z,88.30
2022-12-05T18:45:03.908Z,89.90
2022-12-05T18:47:31.431Z,77.45
2022-12-05T18:49:58.934Z,82.85
2022-12-05T18:52:25.745Z,102.40
2022-12-05T18:55:09.176Z,81.82
2022-12-05T18:57:39.365Z,90.47
2022-12-05T19:00:06.878Z,117.72
2022-12-05T19:02:33.657Z,88.45
2022-12-05T19:05:00.728Z,85.35
2022-12-05T19:07:27.794Z,92.28
2022-12-05T19:09:54.566Z,71.30
2022-12-05T19:12:21.738Z,81.90
2022-12-05T19:14:48.554Z,80.38
2022-12-05T19:17:15.287Z,86.82
2022-12-05T19:19:42.033Z,87.18
2022-12-05T19:22:08.795Z,132.07
2022-12-05T19:24:36.957Z,92.63
2022-12-05T19:27:04.007Z,95.30
2022-12-05T19:29:30.751Z,101.35
2022-12-05T19:31:57.598Z,131.10
2022-12-05T19:34:24.521Z,176.70
2022-12-05T19:36:51.343Z,160.50
2022-12-05T19:39:21.115Z,157.40
2022-12-05T19:41:49.355Z,142.68
2022-12-05T19:44:16.176Z,111.13
2022-12-05T19:46:43.395Z,102.05
2022-12-05T19:49:12.248Z,130.63
2022-12-05T19:51:39.100Z,105.55
2022-12-05T19:54:07.497Z,142.30
2022-12-05T19:56:36.058Z,103.78
2022-12-05T19:59:03.319Z,86.00
2022-12-05T20:01:31.116Z,96.35
2022-12-05T20:04:00.775Z,86.03
2022-12-05T20:06:32.340Z,89.15
2022-12-05T20:08:59.937Z,85.50
2022-12-05T20:11:28.990Z,98.63
2022-12-05T20:13:58.270Z,77.10
2022-12-05T20:16:28.941Z,91.38
2022-12-05T20:18:59.044Z,80.60
2022-12-05T20:21:28.065Z,68.30
2022-12-05T20:23:55.306Z,67.95
2022-12-05T20:26:32.837Z,74.55
2022-12-05T20:29:00.741Z,74.13
2022-12-05T20:31:37.195Z,77.72
2022-12-05T20:34:05.750Z,65.82
2022-12-05T20:36:34.617Z,70.50
2022-12-05T20:39:07.684Z,65.78
2022-12-05T20:41:35.231Z,82.95
2022-12-05T20:44:05.458Z,68.65
2022-12-05T20:46:32.846Z,71.32
2022-12-05T20:49:00.048Z,77.75
2022-12-05T20:51:32.138Z,50.25
2022-12-05T20:54:00.882Z,67.15
2022-12-05T20:56:29.890Z,80.82
2022-12-05T20:59:00.247Z,72.75
2022-12-05T21:01:28.928Z,66.00
2022-12-05T21:03:56.596Z,55.38
2022-12-05T21:06:35.636Z,63.40
2022-12-05T21:09:04.095Z,83.10
2022-12-05T21:11:31.086Z,69.85
2022-12-05T21:14:05.098Z,66.03
2022-12-05T21:16:32.387Z,73.13
2022-12-05T21:18:59.917Z,66.65
2022-12-05T21:21:28.384Z,71.63
2022-12-05T21:23:57.717Z,60.13
2022-12-05T21:26:26.359Z,60.20
2022-12-05T21:28:53.835Z,53.97
2022-12-05T21:31:23.760Z,56.72
2022-12-05T21:33:53.252Z,45.85
2022-12-05T21:36:20.608Z,55.78
2022-12-05T21:38:52.378Z,46.58
2022-12-05T21:41:22.658Z,50.10
2022-12-05T21:43:54.060Z,45.47
2022-12-05T21:46:21.723Z,52.53
2022-12-05T21:48:48.598Z,49.72
2022-12-05T21:51:15.509Z,43.47
2022-12-05T21:53:42.427Z,48.33
2022-12-05T21:56:12.165Z,43.97
2022-12-05T21:58:42.263Z,40.50
2022-12-05T22:01:17.605Z,36.63
2022-12-05T22:03:44.752Z,46.75
2022-12-05T22:06:14.711Z,36.60
2022-12-05T22:08:42.438Z,20.63
2022-12-05T22:11:12.145Z,22.55
2022-12-05T22:13:39.447Z,23.20
2022-12-05T22:16:07.060Z,27.98
2022-12-05T22:18:34.424Z,24.65
2022-12-05T22:21:04.509Z,17.60
2022-12-05T22:23:33.269Z,20.30
2022-12-05T22:26:02.142Z,17.35
2022-12-05T22:28:30.257Z,22.63
2022-12-05T22:30:59.555Z,17.63
2022-12-05T22:33:27.704Z,23.95
2022-12-05T22:35:57.168Z,16.48
2022-12-05T22:38:25.414Z,19.30
2022-12-05T22:41:00.926Z,18.55
2022-12-05T22:43:29.509Z,19.25
2022-12-05T22:45:56.571Z,16.40
2022-12-05T22:48:24.045Z,12.23
2022-12-05T22:50:54.327Z,12.30
2022-12-05T22:53:23.546Z,13.45
2022-12-05T22:55:51.175Z,13.57
2022-12-05T22:58:18.044Z,17.08
2022-12-05T23:00:46.363Z,16.23
2022-12-05T23:03:13.242Z,15.18
2022-12-05T23:05:43.806Z,14.10
2022-12-05T23:08:11.516Z,16.67
2022-12-05T23:10:39.490Z,15.90
2022-12-05T23:13:09.582Z,14.65
2022-12-05T23:15:39.191Z,12.98
2022-12-05T23:18:06.182Z,10.27
2022-12-05T23:20:33.131Z,13.10
2022-12-05T23:22:59.865Z,12.85
2022-12-05T23:25:26.839Z,13.00
2022-12-05T23:27:53.691Z,12.32
2022-12-05T23:30:20.579Z,12.63
2022-12-05T23:32:47.474Z,11.18
2022-12-05T23:35:14.369Z,13.75
2022-12-05T23:37:41.149Z,14.18
2022-12-05T23:40:08.588Z,13.07
2022-12-05T23:42:35.360Z,12.00
2022-12-05T23:45:02.200Z,9.60
2022-12-05T23:47:29.142Z,11.05
2022-12-05T23:49:56.007Z,9.52
2022-12-05T23:52:22.883Z,8.27
2022-12-05T23:54:49.654Z,10.52
2022-12-05T23:57:17.918Z,12.15
2022-12-05T23:59:45.813Z,11.98
